Time;durP1;ratioP1;P1;durP2;ratioP2;P2;SDS_P1;SDS_P2;PMS_P1;PMS_P2;Temp;Humidity;BMP_temperature;BMP_pressure;BME280_temperature;BME280_humidity;BME280_pressure;Samples;Min_cycle;Max_cycle;Signal;HPM_P1;HPM_P2
2022/05/31 00:00:27;;;;;;;7.10;4.80;;;12.20;99.90;;;;;;5000292;28;20932;-81
2022/05/31 00:02:55;;;;;;;7.77;4.33;;;12.20;99.90;;;;;;5000206;28;20954;-81
2022/05/31 00:05:21;;;;;;;7.80;5.10;;;12.20;99.90;;;;;;5000792;28;20466;-81
2022/05/31 00:07:47;;;;;;;10.07;4.57;;;12.30;99.90;;;;;;4999736;28;20448;-81
2022/05/31 00:10:14;;;;;;;5.60;4.33;;;12.30;99.90;;;;;;5000602;28;20434;-81
2022/05/31 00:12:41;;;;;;;7.33;5.17;;;12.30;99.90;;;;;;4999985;28;20459;-81
2022/05/31 00:15:10;;;;;;;7.47;4.60;;;12.30;99.90;;;;;;5000650;28;20452;-81
2022/05/31 00:17:36;;;;;;;6.30;4.27;;;12.40;99.90;;;;;;5000126;28;20483;-81
2022/05/31 00:20:04;;;;;;;7.13;4.17;;;12.30;99.90;;;;;;5006802;28;20438;-81
2022/05/31 00:22:33;;;;;;;6.93;4.80;;;12.30;99.90;;;;;;5019298;28;20534;-81
2022/05/31 00:24:59;;;;;;;5.00;4.40;;;12.30;99.90;;;;;;5018995;28;20423;-81
2022/05/31 00:27:26;;;;;;;8.03;5.07;;;12.30;99.90;;;;;;5018252;28;20451;-81
2022/05/31 00:29:52;;;;;;;6.70;5.23;;;12.30;99.90;;;;;;5010714;28;20423;-81
2022/05/31 00:32:23;;;;;;;6.07;4.93;;;12.40;99.90;;;;;;5001759;28;20426;-81
2022/05/31 00:34:51;;;;;;;6.30;4.27;;;12.20;99.90;;;;;;4998857;28;20419;-81
2022/05/31 00:37:17;;;;;;;6.33;4.83;;;12.20;99.90;;;;;;4998716;28;20471;-81
2022/05/31 00:39:43;;;;;;;6.23;5.17;;;12.30;99.90;;;;;;4998426;28;20412;-80
2022/05/31 00:42:15;;;;;;;8.07;5.87;;;12.40;99.90;;;;;;4999071;28;20802;-81
2022/05/31 00:44:41;;;;;;;7.40;4.90;;;12.30;99.90;;;;;;4998355;28;20602;-81
2022/05/31 00:47:30;;;;;;;6.20;5.30;;;12.40;99.90;;;;;;4998412;28;20471;-81
2022/05/31 00:50:09;;;;;;;6.90;5.20;;;12.40;99.90;;;;;;4998169;28;20420;-81
2022/05/31 00:52:58;;;;;;;6.80;5.07;;;12.40;99.90;;;;;;4998839;28;20440;-81
2022/05/31 00:55:45;;;;;;;8.90;6.10;;;12.50;99.90;;;;;;4997710;28;20416;-81
2022/05/31 00:58:15;;;;;;;6.73;5.00;;;12.50;99.90;;;;;;4998148;28;20452;-81
2022/05/31 01:00:41;;;;;;;5.50;4.37;;;12.50;99.90;;;;;;4997692;28;20474;-81
2022/05/31 01:03:11;;;;;;;6.67;4.23;;;12.50;99.90;;;;;;4997823;28;20783;-81
2022/05/31 01:05:37;;;;;;;6.17;4.87;;;12.50;99.90;;;;;;4997365;28;20535;-81
2022/05/31 01:08:03;;;;;;;5.87;4.40;;;12.50;99.90;;;;;;4997591;28;20467;-81
2022/05/31 01:10:29;;;;;;;6.20;4.53;;;12.60;99.90;;;;;;4997363;28;20200;-81
2022/05/31 01:12:55;;;;;;;5.57;4.40;;;12.60;99.90;;;;;;4997477;28;20927;-81
2022/05/31 01:15:21;;;;;;;6.67;4.87;;;12.60;99.90;;;;;;4997321;28;20193;-81
2022/05/31 01:17:47;;;;;;;5.50;4.37;;;12.60;99.90;;;;;;4997447;28;20217;-81
2022/05/31 01:20:17;;;;;;;8.23;4.50;;;12.60;99.90;;;;;;4997913;28;20424;-81
2022/05/31 01:22:55;;;;;;;6.13;4.53;;;12.60;99.90;;;;;;5000577;28;20436;-82
2022/05/31 01:25:39;;;;;;;7.13;5.17;;;12.50;99.90;;;;;;5008593;28;20512;-81
2022/05/31 01:28:23;;;;;;;5.50;4.03;;;12.50;99.90;;;;;;5007779;28;20527;-81
2022/05/31 01:30:56;;;;;;;6.40;4.60;;;12.50;99.90;;;;;;5007668;28;20416;-81
2022/05/31 01:33:44;;;;;;;6.30;4.07;;;12.50;99.90;;;;;;5005746;28;20531;-81
2022/05/31 01:36:20;;;;;;;5.70;4.40;;;12.50;99.90;;;;;;5004939;28;20839;-82
2022/05/31 01:39:06;;;;;;;5.70;4.57;;;12.50;99.90;;;;;;5004159;28;20432;-82
2022/05/31 01:41:41;;;;;;;5.90;4.37;;;12.50;99.90;;;;;;5004602;28;20431;-82
2022/05/31 01:44:12;;;;;;;5.87;3.90;;;12.60;99.90;;;;;;5004425;28;20423;-81
2022/05/31 01:46:38;;;;;;;5.27;3.77;;;12.50;99.90;;;;;;5003661;28;20534;-81
2022/05/31 01:49:07;;;;;;;5.00;3.77;;;12.60;99.90;;;;;;5001641;28;20468;-81
2022/05/31 01:51:35;;;;;;;5.80;3.70;;;12.60;99.90;;;;;;4995818;28;20554;-80
2022/05/31 01:54:01;;;;;;;10.37;4.27;;;12.50;99.90;;;;;;4995606;28;20776;-81
2022/05/31 01:56:29;;;;;;;6.17;3.90;;;12.60;99.90;;;;;;4994990;28;20509;-81
2022/05/31 01:58:56;;;;;;;6.07;4.40;;;12.60;99.90;;;;;;4995484;28;20454;-81
2022/05/31 02:01:23;;;;;;;5.17;4.10;;;12.60;99.90;;;;;;4995316;28;20420;-80
2022/05/31 02:03:49;;;;;;;5.20;3.77;;;12.60;99.90;;;;;;4995450;28;20423;-80
2022/05/31 02:06:33;;;;;;;7.73;3.97;;;12.60;99.90;;;;;;4994959;28;20432;-81
2022/05/31 02:09:00;;;;;;;5.07;3.40;;;12.70;99.90;;;;;;4995523;28;20176;-81
2022/05/31 02:11:27;;;;;;;5.63;3.33;;;12.60;99.90;;;;;;4995466;28;20514;-80
2022/05/31 02:13:53;;;;;;;4.90;3.60;;;12.70;99.90;;;;;;4995659;28;20427;-80
2022/05/31 02:16:19;;;;;;;4.83;3.10;;;12.70;99.90;;;;;;4995207;28;20563;-80
2022/05/31 02:21:35;;;;;;;4.20;2.70;;;12.70;99.90;;;;;;5013406;28;20415;-80
2022/05/31 02:24:07;;;;;;;4.40;3.20;;;12.70;99.90;;;;;;4994927;28;20431;-81
2022/05/31 02:26:33;;;;;;;4.00;3.17;;;12.70;99.90;;;;;;4995499;28;20432;-80
2022/05/31 02:28:59;;;;;;;3.30;2.70;;;12.60;99.90;;;;;;4995383;28;20424;-81
2022/05/31 02:31:26;;;;;;;4.87;3.50;;;12.60;99.90;;;;;;4995584;28;20428;-80
2022/05/31 02:33:53;;;;;;;5.60;2.70;;;12.60;99.90;;;;;;4994172;28;20511;-80
2022/05/31 02:36:19;;;;;;;4.20;3.03;;;12.60;99.90;;;;;;4994868;28;21062;-81
2022/05/31 02:38:45;;;;;;;4.47;2.83;;;12.70;99.90;;;;;;4995357;28;20497;-81
2022/05/31 02:41:10;;;;;;;4.27;2.90;;;12.80;99.90;;;;;;4995328;28;20420;-80
2022/05/31 02:43:36;;;;;;;4.13;3.00;;;12.70;99.90;;;;;;4995286;28;20181;-81
2022/05/31 02:46:05;;;;;;;5.17;3.30;;;12.70;99.90;;;;;;4995162;28;20196;-81
2022/05/31 02:48:34;;;;;;;5.10;3.00;;;12.70;99.90;;;;;;4995084;28;20197;-80
2022/05/31 02:51:00;;;;;;;8.13;2.50;;;12.70;99.90;;;;;;4995172;28;20459;-81
2022/05/31 02:53:26;;;;;;;3.77;2.83;;;12.70;99.90;;;;;;4995190;28;20458;-81
2022/05/31 02:55:52;;;;;;;5.37;3.40;;;12.70;99.90;;;;;;4995089;28;20495;-80
2022/05/31 02:58:18;;;;;;;4.83;2.60;;;12.70;99.90;;;;;;4995174;28;20447;-80
2022/05/31 03:00:44;;;;;;;5.10;2.90;;;12.70;99.90;;;;;;4995554;28;20540;-81
2022/05/31 03:03:09;;;;;;;4.07;2.80;;;12.80;99.90;;;;;;4995422;28;20235;-81
2022/05/31 03:05:35;;;;;;;4.60;2.70;;;12.70;99.90;;;;;;4995325;28;20598;-81
2022/05/31 03:08:02;;;;;;;4.00;2.90;;;12.70;99.90;;;;;;4995123;28;20201;-80
2022/05/31 03:10:34;;;;;;;6.40;2.93;;;12.70;99.90;;;;;;4995125;28;20187;-80
2022/05/31 03:13:00;;;;;;;4.33;3.00;;;12.60;99.90;;;;;;4995506;28;20467;-81
2022/05/31 03:15:26;;;;;;;6.30;3.20;;;12.60;99.90;;;;;;4995543;28;20663;-80
2022/05/31 03:18:05;;;;;;;4.93;2.87;;;12.60;99.90;;;;;;4994654;28;20479;-81
2022/05/31 03:20:59;;;;;;;4.27;2.87;;;12.60;99.90;;;;;;4994931;28;20451;-81
2022/05/31 03:23:38;;;;;;;4.23;2.50;;;12.60;99.90;;;;;;4991775;28;20413;-81
2022/05/31 03:26:08;;;;;;;5.50;3.00;;;12.50;99.90;;;;;;4995365;28;20424;-80
2022/05/31 03:28:35;;;;;;;4.40;2.80;;;12.50;99.90;;;;;;4995068;28;20447;-81
2022/05/31 03:31:01;;;;;;;4.30;2.97;;;12.50;99.90;;;;;;4994878;28;20447;-81
2022/05/31 03:33:28;;;;;;;5.20;2.70;;;12.60;99.90;;;;;;4995540;28;20474;-80
2022/05/31 03:35:53;;;;;;;5.27;2.83;;;12.60;99.90;;;;;;4995260;28;20466;-82
2022/05/31 03:38:20;;;;;;;4.17;2.70;;;12.50;99.90;;;;;;4994865;28;20910;-81
2022/05/31 03:41:01;;;;;;;4.13;2.40;;;12.60;99.90;;;;;;4994997;28;20415;-80
2022/05/31 03:43:33;;;;;;;4.10;2.50;;;12.60;99.90;;;;;;4995220;28;20511;-81
2022/05/31 03:45:59;;;;;;;3.70;2.50;;;12.50;99.90;;;;;;4994857;28;20444;-80
2022/05/31 03:48:27;;;;;;;4.67;2.43;;;12.60;99.90;;;;;;4994950;28;20447;-81
2022/05/31 03:51:04;;;;;;;4.93;2.93;;;12.60;99.90;;;;;;4994916;28;20428;-81
2022/05/31 03:53:33;;;;;;;4.23;2.70;;;12.60;99.90;;;;;;4994934;28;20849;-80
2022/05/31 03:56:03;;;;;;;4.70;3.00;;;12.70;99.90;;;;;;4994866;28;20865;-80
2022/05/31 03:58:28;;;;;;;8.70;3.00;;;12.70;99.90;;;;;;4994695;28;20440;-81
2022/05/31 04:00:54;;;;;;;4.93;2.80;;;12.70;99.90;;;;;;4995278;28;20420;-81
2022/05/31 04:03:20;;;;;;;5.97;2.73;;;12.70;99.90;;;;;;4997844;28;20240;-81
2022/05/31 04:05:48;;;;;;;4.60;2.57;;;12.80;99.90;;;;;;4998828;28;20192;-81
2022/05/31 04:08:14;;;;;;;3.27;2.47;;;12.80;99.90;;;;;;4998365;28;20669;-81
2022/05/31 04:10:42;;;;;;;4.97;3.00;;;12.70;99.90;;;;;;4998888;28;20515;-81
2022/05/31 04:13:08;;;;;;;5.83;3.87;;;12.80;99.90;;;;;;4999115;28;20865;-80
2022/05/31 04:15:34;;;;;;;3.70;2.33;;;12.70;99.90;;;;;;5005299;28;20428;-82
2022/05/31 04:18:00;;;;;;;4.03;2.63;;;12.80;99.90;;;;;;5009778;28;20506;-82
2022/05/31 04:20:26;;;;;;;6.73;2.60;;;12.90;99.90;;;;;;5009151;28;20428;-81
2022/05/31 04:23:57;;;;;;;5.27;3.00;;;12.90;99.90;;;;;;5008647;28;20428;-81
2022/05/31 04:25:38;;;;;;;5.50;3.10;;;12.90;99.90;;;;;;5025105;28;20454;-81
2022/05/31 04:28:04;;;;;;;4.87;2.57;;;12.80;99.90;;;;;;5007439;28;20827;-81
2022/05/31 04:30:30;;;;;;;3.70;2.37;;;12.70;99.90;;;;;;5006980;28;20181;-81
2022/05/31 04:32:55;;;;;;;4.87;2.90;;;12.50;99.90;;;;;;5006341;28;20482;-81
2022/05/31 04:35:21;;;;;;;4.33;2.93;;;12.40;99.90;;;;;;5006121;28;20287;-81
2022/05/31 04:37:47;;;;;;;4.30;2.73;;;12.40;99.90;;;;;;5005696;28;20220;-82
2022/05/31 04:40:13;;;;;;;4.13;2.87;;;12.30;99.90;;;;;;5005266;28;20181;-82
2022/05/31 04:42:39;;;;;;;3.20;2.63;;;12.30;99.90;;;;;;5004985;28;20316;-81
2022/05/31 04:45:06;;;;;;;4.80;2.80;;;12.30;99.90;;;;;;5004653;28;20275;-81
2022/05/31 04:47:32;;;;;;;4.33;2.10;;;12.30;99.90;;;;;;5003346;28;20452;-81
2022/05/31 04:49:58;;;;;;;4.73;3.17;;;12.30;99.90;;;;;;5004267;28;20432;-81
2022/05/31 04:52:23;;;;;;;4.63;2.20;;;12.40;99.90;;;;;;5003614;28;20181;-81
2022/05/31 04:54:52;;;;;;;4.07;2.90;;;12.40;99.90;;;;;;5003200;28;20424;-81
2022/05/31 04:57:18;;;;;;;4.20;2.73;;;12.50;99.90;;;;;;5002582;28;20217;-81
2022/05/31 04:59:45;;;;;;;3.50;2.60;;;12.50;99.90;;;;;;5002684;28;20420;-81
2022/05/31 05:02:11;;;;;;;3.20;2.03;;;12.60;99.90;;;;;;5002193;28;20421;-80
2022/05/31 05:04:37;;;;;;;7.50;3.30;;;12.60;99.90;;;;;;5002876;28;20428;-82
2022/05/31 05:07:03;;;;;;;3.90;2.40;;;12.70;99.90;;;;;;5002676;28;20625;-81
2022/05/31 05:09:29;;;;;;;4.00;3.07;;;12.80;99.90;;;;;;5001976;28;20427;-81
2022/05/31 05:11:55;;;;;;;3.37;2.63;;;12.90;99.90;;;;;;5002409;28;20471;-80
2022/05/31 05:14:22;;;;;;;4.03;2.20;;;12.90;99.90;;;;;;5001090;28;20181;-81
2022/05/31 05:16:48;;;;;;;5.70;2.80;;;13.00;99.90;;;;;;5001470;28;20470;-81
2022/05/31 05:19:16;;;;;;;4.23;2.43;;;13.10;99.90;;;;;;5000280;28;20478;-81
2022/05/31 05:21:42;;;;;;;5.03;2.60;;;13.10;99.90;;;;;;5000817;28;20443;-81
2022/05/31 05:24:08;;;;;;;3.57;2.97;;;13.10;99.90;;;;;;5000668;28;20432;-81
2022/05/31 05:26:36;;;;;;;4.53;2.63;;;13.20;99.90;;;;;;5000045;28;20431;-81
2022/05/31 05:31:47;;;;;;;5.33;2.63;;;13.30;99.90;;;;;;5018061;28;20800;-82
2022/05/31 05:34:13;;;;;;;5.53;2.93;;;13.30;99.90;;;;;;4999425;28;20460;-81
2022/05/31 05:36:38;;;;;;;3.50;2.40;;;13.30;99.90;;;;;;4998960;28;20647;-80
2022/05/31 05:39:10;;;;;;;3.47;2.50;;;13.30;99.90;;;;;;4998842;28;20427;-81
2022/05/31 05:41:36;;;;;;;3.60;2.63;;;13.30;99.90;;;;;;4998791;28;20185;-81
2022/05/31 05:44:02;;;;;;;5.40;2.90;;;13.20;99.90;;;;;;4998832;28;20474;-80
2022/05/31 05:46:28;;;;;;;3.87;2.70;;;13.20;99.90;;;;;;4998253;28;20931;-80
2022/05/31 05:48:55;;;;;;;7.70;3.70;;;12.90;99.90;;;;;;4996888;28;20444;-82
2022/05/31 05:51:26;;;;;;;4.53;2.90;;;12.80;99.90;;;;;;4997035;28;20523;-80
2022/05/31 05:53:53;;;;;;;4.53;3.23;;;12.70;99.90;;;;;;4997549;28;20943;-82
2022/05/31 05:56:20;;;;;;;6.03;3.17;;;12.50;99.90;;;;;;4997020;28;20494;-80
2022/05/31 05:58:46;;;;;;;4.33;3.10;;;12.50;99.90;;;;;;4997183;28;20451;-80
2022/05/31 06:01:42;;;;;;;4.77;3.20;;;12.60;99.90;;;;;;4996769;28;20428;-80
2022/05/31 06:04:22;;;;;;;6.03;3.10;;;12.70;99.90;;;;;;4983520;28;20981;-80
2022/05/31 06:06:59;;;;;;;3.87;2.73;;;12.80;99.90;;;;;;4997023;28;20439;-80
2022/05/31 06:09:26;;;;;;;7.30;2.70;;;12.80;99.90;;;;;;4997117;28;20420;-81
2022/05/31 06:12:04;;;;;;;7.60;4.37;;;12.90;99.90;;;;;;4997406;28;21044;-84
2022/05/31 06:14:37;;;;;;;7.30;3.20;;;13.00;99.90;;;;;;4996272;28;20419;-82
2022/05/31 06:17:11;;;;;;;5.43;3.17;;;13.10;99.90;;;;;;4996127;28;20475;-81
2022/05/31 06:19:39;;;;;;;6.10;3.13;;;13.20;99.90;;;;;;4995944;28;20423;-82
2022/05/31 06:22:07;;;;;;;4.80;3.67;;;13.30;99.90;;;;;;4995812;28;20428;-81
2022/05/31 06:24:35;;;;;;;8.77;3.93;;;13.40;99.90;;;;;;4995537;28;20412;-81
2022/05/31 06:27:01;;;;;;;4.90;3.50;;;13.60;99.90;;;;;;4995494;28;20444;-81
2022/05/31 06:29:30;;;;;;;7.17;3.00;;;13.70;99.90;;;;;;4995723;28;20427;-81
2022/05/31 06:31:56;;;;;;;5.27;3.40;;;13.80;99.90;;;;;;4995681;28;20423;-81
2022/05/31 06:34:23;;;;;;;4.20;2.93;;;13.80;99.90;;;;;;4995648;28;20996;-82
2022/05/31 06:36:49;;;;;;;5.60;3.00;;;13.90;99.90;;;;;;4994979;28;20507;-82
2022/05/31 06:39:16;;;;;;;4.73;3.07;;;13.90;99.90;;;;;;4995435;28;20427;-82
2022/05/31 06:41:41;;;;;;;5.07;3.10;;;13.80;99.90;;;;;;4995564;28;20435;-81
2022/05/31 06:44:07;;;;;;;4.67;3.10;;;13.80;99.90;;;;;;4995071;28;20719;-81
2022/05/31 06:46:33;;;;;;;5.30;2.80;;;13.90;99.90;;;;;;4996634;28;20224;-81
2022/05/31 06:49:01;;;;;;;4.03;2.50;;;14.00;99.90;;;;;;4998130;28;20420;-83
2022/05/31 06:56:59;;;;;;;4.20;2.63;;;14.60;99.90;;;;;;5013912;28;20479;-80
2022/05/31 06:59:25;;;;;;;5.60;2.80;;;14.70;99.90;;;;;;4995332;28;20474;-79
2022/05/31 07:01:53;;;;;;;3.77;2.37;;;14.80;99.90;;;;;;4995749;28;20424;-81
2022/05/31 07:04:19;;;;;;;3.67;2.27;;;14.90;99.90;;;;;;4996083;28;20184;-82
2022/05/31 07:06:45;;;;;;;4.30;2.50;;;15.30;99.90;;;;;;4998911;28;20812;-84
2022/05/31 07:09:12;;;;;;;3.20;2.20;;;15.40;99.90;;;;;;5002026;28;20431;-83
2022/05/31 07:11:39;;;;;;;4.10;2.00;;;15.50;99.90;;;;;;5006046;28;20439;-84
2022/05/31 07:14:05;;;;;;;4.50;2.23;;;15.50;99.90;;;;;;5006343;28;20450;-84
2022/05/31 07:16:31;;;;;;;6.30;2.07;;;15.50;99.90;;;;;;5020637;28;20462;-85
2022/05/31 07:18:57;;;;;;;6.27;2.43;;;15.60;99.90;;;;;;5021716;28;20204;-84
2022/05/31 07:21:24;;;;;;;3.60;2.30;;;15.60;99.90;;;;;;5021658;28;20177;-83
2022/05/31 07:23:53;;;;;;;3.70;2.40;;;15.80;99.90;;;;;;5017297;28;20185;-80
2022/05/31 07:26:20;;;;;;;5.30;2.13;;;16.20;99.90;;;;;;5014016;28;20480;-73
2022/05/31 07:28:46;;;;;;;3.13;2.13;;;16.50;99.90;;;;;;5015440;28;20439;-81
2022/05/31 07:31:12;;;;;;;5.77;2.70;;;16.70;99.90;;;;;;5015512;28;20427;-80
2022/05/31 07:33:38;;;;;;;4.33;2.50;;;16.70;99.90;;;;;;5015414;28;20415;-80
2022/05/31 07:36:05;;;;;;;4.40;2.63;;;16.70;99.90;;;;;;5015990;28;20964;-80
2022/05/31 07:38:31;;;;;;;5.80;2.70;;;16.50;99.90;;;;;;4998073;28;20467;-80
2022/05/31 07:40:57;;;;;;;4.30;2.50;;;16.40;99.90;;;;;;4998913;28;20474;-81
2022/05/31 07:43:23;;;;;;;4.43;2.80;;;16.30;99.90;;;;;;4998612;28;20656;-80
2022/05/31 07:45:49;;;;;;;3.53;2.30;;;16.10;99.90;;;;;;4998834;28;20211;-80
2022/05/31 07:48:14;;;;;;;4.10;2.10;;;15.90;99.90;;;;;;5002841;28;20255;-80
2022/05/31 07:50:40;;;;;;;3.30;1.90;;;15.70;99.90;;;;;;5018247;28;20419;-80
2022/05/31 07:53:06;;;;;;;5.80;2.43;;;15.50;99.90;;;;;;5010216;28;20454;-80
2022/05/31 07:55:32;;;;;;;3.20;2.67;;;15.30;99.90;;;;;;5022783;28;20193;-80
2022/05/31 08:00:42;;;;;;;3.90;2.50;;;15.00;99.90;;;;;;5022576;28;20451;-80
2022/05/31 08:03:12;;;;;;;3.67;2.30;;;14.90;99.90;;;;;;4998988;28;20424;-80
2022/05/31 08:05:39;;;;;;;5.30;2.40;;;15.00;99.90;;;;;;4998657;28;20215;-80
2022/05/31 08:08:05;;;;;;;3.47;2.57;;;15.10;99.90;;;;;;4999075;28;20454;-80
2022/05/31 08:10:31;;;;;;;6.10;2.40;;;15.10;99.90;;;;;;4998847;28;20487;-80
2022/05/31 08:12:57;;;;;;;4.80;2.57;;;15.30;99.90;;;;;;4998438;28;20423;-80
2022/05/31 08:15:23;;;;;;;5.10;2.57;;;15.30;99.90;;;;;;4998562;28;20530;-80
2022/05/31 08:17:49;;;;;;;3.17;2.30;;;15.40;99.90;;;;;;4998327;28;20217;-80
2022/05/31 08:20:18;;;;;;;5.57;2.83;;;15.50;99.90;;;;;;4998130;28;20443;-80
2022/05/31 08:22:45;;;;;;;3.87;3.07;;;15.50;99.90;;;;;;4998588;28;20197;-80
2022/05/31 08:25:12;;;;;;;4.93;2.37;;;15.50;99.90;;;;;;4998260;28;20423;-80
2022/05/31 08:27:38;;;;;;;4.67;2.67;;;15.50;99.90;;;;;;4998059;28;20483;-80
2022/05/31 08:30:05;;;;;;;3.03;2.17;;;15.60;99.90;;;;;;4998039;28;20517;-80
2022/05/31 08:32:32;;;;;;;3.90;2.40;;;15.60;99.90;;;;;;4998250;28;20189;-80
2022/05/31 08:34:58;;;;;;;4.20;2.40;;;15.60;99.90;;;;;;4998322;28;20437;-80
2022/05/31 08:37:24;;;;;;;3.63;2.03;;;15.60;99.90;;;;;;4997536;28;20476;-80
2022/05/31 08:39:50;;;;;;;4.60;2.67;;;15.50;99.90;;;;;;4998098;28;20188;-80
2022/05/31 08:42:21;;;;;;;3.10;2.10;;;15.40;99.90;;;;;;4998257;28;20185;-80
2022/05/31 08:44:47;;;;;;;3.40;2.40;;;15.40;99.90;;;;;;4998235;28;20814;-80
2022/05/31 08:47:15;;;;;;;3.70;2.30;;;15.30;99.90;;;;;;5015220;28;20470;-80
2022/05/31 08:52:55;;;;;;;3.10;2.17;;;15.40;99.90;;;;;;5016655;28;20466;-81
2022/05/31 08:58:29;;;;;;;8.53;2.80;;;15.50;99.90;;;;;;5016417;28;20481;-80
2022/05/31 09:00:57;;;;;;;7.00;2.90;;;15.60;99.90;;;;;;5016884;28;20440;-80
2022/05/31 09:03:34;;;;;;;4.03;2.40;;;15.50;99.90;;;;;;4999265;28;20420;-80
2022/05/31 09:06:31;;;;;;;3.30;2.70;;;15.50;99.90;;;;;;4999697;28;20454;-79
2022/05/31 09:09:19;;;;;;;4.73;3.00;;;15.40;99.90;;;;;;5005913;28;20502;-81
2022/05/31 09:12:09;;;;;;;3.37;2.57;;;15.40;99.90;;;;;;5004396;28;20471;-81
2022/05/31 09:14:48;;;;;;;8.10;2.70;;;15.30;99.90;;;;;;5003944;28;20791;-80
2022/05/31 09:18:07;;;;;;;6.80;2.80;;;15.30;99.90;;;;;;5012618;28;20478;-79
2022/05/31 09:20:53;;;;;;;4.00;2.50;;;15.30;99.90;;;;;;4989682;28;20480;-81
2022/05/31 09:23:23;;;;;;;6.60;2.40;;;15.40;99.90;;;;;;5008406;28;20445;-83
2022/05/31 09:26:19;;;;;;;3.77;2.73;;;15.50;99.90;;;;;;5023515;28;20415;-84
2022/05/31 09:28:48;;;;;;;5.00;3.00;;;15.70;99.90;;;;;;4982921;28;20466;-84
2022/05/31 09:32:00;;;;;;;8.07;2.73;;;15.90;99.90;;;;;;5023945;28;20423;-85
2022/05/31 09:34:53;;;;;;;3.77;2.50;;;16.20;99.90;;;;;;5021578;28;20427;-86
2022/05/31 09:38:05;;;;;;;4.30;2.73;;;18.10;99.90;;;;;;5023876;28;20526;-86
2022/05/31 09:40:47;;;;;;;4.10;2.30;;;18.50;99.90;;;;;;4991616;28;20490;-86
2022/05/31 09:43:30;;;;;;;3.93;2.50;;;21.90;99.90;;;;;;5019714;28;20443;-85
2022/05/31 09:46:16;;;;;;;3.30;2.43;;;25.30;99.90;;;;;;5011624;28;20459;-85
2022/05/31 09:48:51;;;;;;;4.93;2.17;;;27.50;96.70;;;;;;5000230;28;20506;-81
2022/05/31 09:51:19;;;;;;;4.13;3.40;;;27.90;82.70;;;;;;5000552;28;20415;-82
2022/05/31 09:59:26;;;;;;;3.73;2.00;;;26.80;78.60;;;;;;5018499;28;20407;-82
2022/05/31 10:01:53;;;;;;;3.60;2.60;;;25.50;73.20;;;;;;5005886;28;20442;-82
2022/05/31 10:04:26;;;;;;;3.40;2.47;;;25.10;76.10;;;;;;5020249;28;20507;-82
2022/05/31 10:07:01;;;;;;;3.47;1.90;;;24.40;83.10;;;;;;5010279;28;20835;-81
2022/05/31 10:09:38;;;;;;;4.10;2.30;;;24.30;85.30;;;;;;5024384;28;20426;-81
2022/05/31 10:12:29;;;;;;;6.67;2.53;;;24.10;87.00;;;;;;5023512;28;20835;-82
2022/05/31 10:14:56;;;;;;;7.00;2.10;;;24.20;88.40;;;;;;5022300;28;20434;-81
2022/05/31 10:17:37;;;;;;;3.10;2.07;;;24.10;89.80;;;;;;5022460;28;20481;-81
2022/05/31 10:20:19;;;;;;;4.63;2.20;;;23.70;91.00;;;;;;5021468;28;20802;-81
2022/05/31 10:23:05;;;;;;;3.43;2.20;;;23.20;87.80;;;;;;5022518;28;20753;-81
2022/05/31 10:25:47;;;;;;;3.33;2.07;;;22.80;90.80;;;;;;5020792;28;20426;-81
2022/05/31 10:28:26;;;;;;;5.00;2.00;;;23.00;93.70;;;;;;5021007;28;20837;-81
2022/05/31 10:31:00;;;;;;;4.87;2.47;;;22.70;92.80;;;;;;5020197;28;20427;-81
2022/05/31 10:33:26;;;;;;;3.90;2.10;;;22.40;92.90;;;;;;5020106;28;20930;-81
2022/05/31 10:36:04;;;;;;;3.30;2.00;;;22.10;94.70;;;;;;5019444;28;21148;-81
2022/05/31 10:38:31;;;;;;;3.20;2.20;;;21.90;97.80;;;;;;5019157;28;20455;-81
2022/05/31 10:41:07;;;;;;;4.10;2.07;;;21.60;98.00;;;;;;5019313;28;20435;-82
2022/05/31 10:43:40;;;;;;;4.50;2.47;;;21.50;98.20;;;;;;5018573;28;20435;-80
2022/05/31 10:46:21;;;;;;;3.80;2.20;;;21.60;99.90;;;;;;5018362;28;20462;-82
2022/05/31 10:48:52;;;;;;;5.57;2.33;;;22.10;99.90;;;;;;5018655;28;21002;-82
2022/05/31 10:51:36;;;;;;;3.20;1.83;;;23.10;96.60;;;;;;5017107;28;20473;-81
2022/05/31 10:54:05;;;;;;;3.30;2.13;;;23.90;95.20;;;;;;5017838;28;20418;-82
2022/05/31 10:56:50;;;;;;;4.00;2.40;;;24.40;93.10;;;;;;5017398;28;20502;-81
2022/05/31 10:59:24;;;;;;;3.47;2.10;;;24.30;91.30;;;;;;5017091;28;20426;-81
2022/05/31 11:02:09;;;;;;;3.10;2.30;;;24.10;90.00;;;;;;5017269;28;20473;-81
2022/05/31 11:04:55;;;;;;;5.97;1.90;;;23.50;91.70;;;;;;5016560;28;20473;-81
2022/05/31 11:07:29;;;;;;;3.17;2.30;;;23.30;91.40;;;;;;5016225;28;20438;-81
2022/05/31 11:12:56;;;;;;;6.40;2.70;;;23.00;91.00;;;;;;5020382;28;20454;-81
2022/05/31 11:15:46;;;;;;;3.57;2.07;;;23.10;90.70;;;;;;5000769;28;20431;-81
2022/05/31 11:18:31;;;;;;;3.90;2.30;;;23.20;91.00;;;;;;5000496;28;20467;-81
2022/05/31 11:21:29;;;;;;;3.67;1.90;;;23.20;91.50;;;;;;4998468;28;20428;-81
2022/05/31 11:24:06;;;;;;;3.27;2.00;;;23.30;90.90;;;;;;4998708;28;20515;-81
2022/05/31 11:26:50;;;;;;;4.23;2.17;;;23.50;91.00;;;;;;4997971;28;20420;-80
2022/05/31 11:29:25;;;;;;;2.87;2.10;;;23.20;89.00;;;;;;4998686;28;20420;-81
2022/05/31 11:31:57;;;;;;;4.50;2.60;;;23.00;85.70;;;;;;4998639;28;20462;-81
2022/05/31 11:34:41;;;;;;;4.03;2.10;;;23.10;90.50;;;;;;4998532;28;20430;-81
2022/05/31 11:37:29;;;;;;;3.13;2.13;;;23.10;88.30;;;;;;4998169;28;20860;-81
2022/05/31 11:40:41;;;;;;;5.10;2.00;;;23.10;90.50;;;;;;5001330;28;20965;-81
2022/05/31 11:43:10;;;;;;;3.30;1.90;;;22.90;87.70;;;;;;5005770;28;20414;-81
2022/05/31 11:46:01;;;;;;;3.90;2.50;;;23.30;91.40;;;;;;5017477;28;20965;-81
2022/05/31 11:48:49;;;;;;;3.60;2.17;;;23.20;87.20;;;;;;5018490;28;20438;-81
2022/05/31 11:51:37;;;;;;;3.90;2.43;;;23.40;90.20;;;;;;5017800;28;20438;-81
2022/05/31 11:54:25;;;;;;;3.40;2.33;;;23.50;90.20;;;;;;5026928;28;20437;-82
2022/05/31 11:57:15;;;;;;;5.10;2.20;;;23.70;88.40;;;;;;5023804;28;20458;-82
2022/05/31 11:59:43;;;;;;;3.23;2.10;;;23.60;85.70;;;;;;5014429;28;20429;-77
2022/05/31 12:02:32;;;;;;;3.23;2.00;;;23.70;84.80;;;;;;5018183;28;20419;-78
2022/05/31 12:05:10;;;;;;;3.20;2.10;;;23.70;85.10;;;;;;5020176;28;20414;-79
2022/05/31 12:07:43;;;;;;;3.67;2.30;;;23.70;84.40;;;;;;5017643;28;20474;-79
2022/05/31 12:10:16;;;;;;;3.60;2.43;;;24.10;86.30;;;;;;5018065;28;20423;-78
2022/05/31 12:12:44;;;;;;;3.20;1.93;;;24.20;83.10;;;;;;5017929;28;20411;-79
2022/05/31 12:15:21;;;;;;;3.53;2.23;;;24.10;78.50;;;;;;5018018;28;20467;-78
2022/05/31 12:17:47;;;;;;;4.47;2.50;;;24.10;74.00;;;;;;5017921;28;20477;-78
2022/05/31 12:20:41;;;;;;;4.00;2.20;;;24.20;77.70;;;;;;5019858;28;20427;-78
2022/05/31 12:23:15;;;;;;;4.03;2.13;;;24.50;77.00;;;;;;5021758;28;20279;-78
2022/05/31 12:25:46;;;;;;;4.30;2.13;;;24.50;70.60;;;;;;5016969;28;20423;-77
2022/05/31 12:28:27;;;;;;;3.20;1.93;;;24.20;68.70;;;;;;5021971;28;20443;-78
2022/05/31 12:30:59;;;;;;;3.50;2.10;;;24.00;73.00;;;;;;5024218;28;20473;-79
2022/05/31 12:33:46;;;;;;;4.13;2.20;;;23.70;68.40;;;;;;5009222;28;20451;-76
2022/05/31 12:36:16;;;;;;;3.50;1.90;;;23.30;68.70;;;;;;5004621;28;20423;-75
2022/05/31 12:39:08;;;;;;;4.90;2.60;;;22.90;62.60;;;;;;5016373;28;20443;-75
2022/05/31 12:41:34;;;;;;;2.80;1.80;;;22.70;67.80;;;;;;5016094;28;20423;-75
2022/05/31 12:44:00;;;;;;;3.23;1.90;;;22.40;69.50;;;;;;5016521;28;20446;-74
2022/05/31 12:46:47;;;;;;;4.10;2.50;;;22.20;71.20;;;;;;5015913;28;20516;-75
2022/05/31 12:49:30;;;;;;;3.57;2.17;;;22.10;71.60;;;;;;5016409;28;20843;-75
2022/05/31 12:54:54;;;;;;;3.17;2.27;;;21.80;81.00;;;;;;5034400;28;20417;-75
2022/05/31 12:57:24;;;;;;;3.70;2.07;;;21.30;74.20;;;;;;5015463;28;20521;-75
2022/05/31 12:59:54;;;;;;;4.53;1.87;;;20.70;73.40;;;;;;5016181;28;20430;-75
2022/05/31 13:02:31;;;;;;;2.50;1.30;;;20.30;74.20;;;;;;5015672;28;20438;-75
2022/05/31 13:05:06;;;;;;;2.70;1.50;;;20.10;68.40;;;;;;5015802;28;20949;-75
2022/05/31 13:07:46;;;;;;;2.60;1.50;;;19.90;74.60;;;;;;5015594;28;20512;-74
2022/05/31 13:10:35;;;;;;;2.60;1.57;;;19.80;68.10;;;;;;5033694;28;20997;-75
2022/05/31 13:21:27;;;;;;;3.70;1.93;;;19.00;86.10;;;;;;5030526;28;20415;-75
2022/05/31 13:23:54;;;;;;;2.90;1.77;;;19.20;86.20;;;;;;5004602;28;20420;-74
2022/05/31 13:26:29;;;;;;;2.97;1.50;;;19.50;84.70;;;;;;4995893;28;20997;-75
2022/05/31 13:29:06;;;;;;;3.07;1.77;;;20.00;74.30;;;;;;4995661;28;20439;-76
2022/05/31 13:31:37;;;;;;;4.60;2.20;;;20.80;70.20;;;;;;4995667;28;20501;-75
2022/05/31 13:34:09;;;;;;;5.50;2.80;;;21.30;80.80;;;;;;4995876;28;20461;-75
2022/05/31 13:36:45;;;;;;;2.93;1.53;;;21.40;71.00;;;;;;4995279;28;20474;-74
2022/05/31 13:39:14;;;;;;;2.97;1.80;;;21.70;68.70;;;;;;4995924;28;20506;-75
2022/05/31 13:42:02;;;;;;;3.23;1.73;;;21.90;70.10;;;;;;4995020;28;20444;-75
2022/05/31 13:44:37;;;;;;;3.00;1.70;;;22.20;77.00;;;;;;4996045;28;20444;-75
2022/05/31 13:47:08;;;;;;;4.30;2.00;;;22.70;67.80;;;;;;4995129;28;20505;-75
2022/05/31 13:49:41;;;;;;;2.70;1.60;;;22.80;59.80;;;;;;4995781;28;20462;-75
2022/05/31 13:52:22;;;;;;;2.97;1.50;;;22.90;61.60;;;;;;4995289;28;20428;-74